createdAt,value
2023-10-18T00:01:43.138Z,7.28
2023-10-18T00:04:17.352Z,7.27
2023-10-18T00:06:50.194Z,7.27
2023-10-18T00:09:41.713Z,7.28
2023-10-18T00:12:17.986Z,7.26
2023-10-18T00:14:52.223Z,7.23
2023-10-18T00:17:24.983Z,7.22
2023-10-18T00:19:58.472Z,7.20
2023-10-18T00:22:30.690Z,7.19
2023-10-18T00:25:03.041Z,7.18
2023-10-18T00:27:35.863Z,7.17
2023-10-18T00:30:13.033Z,7.17
2023-10-18T00:32:45.686Z,7.13
2023-10-18T00:35:23.128Z,7.14
2023-10-18T00:37:56.866Z,7.14
2023-10-18T00:40:38.882Z,7.13
2023-10-18T00:43:21.545Z,7.11
2023-10-18T00:45:56.291Z,7.07
2023-10-18T00:48:29.201Z,7.07
2023-10-18T00:51:03.882Z,7.03
2023-10-18T00:53:36.764Z,7.01
2023-10-18T00:56:12.984Z,6.97
2023-10-18T00:58:47.419Z,6.92
2023-10-18T01:01:21.106Z,6.88
2023-10-18T01:03:54.995Z,6.86
2023-10-18T01:06:28.874Z,6.83
2023-10-18T01:09:01.462Z,6.80
2023-10-18T01:11:34.051Z,6.75
2023-10-18T01:14:08.289Z,6.74
2023-10-18T01:16:40.742Z,6.73
2023-10-18T01:19:16.065Z,6.60
2023-10-18T01:21:48.358Z,6.69
2023-10-18T01:24:22.210Z,6.68
2023-10-18T01:26:54.561Z,6.67
2023-10-18T01:29:27.132Z,6.64
2023-10-18T01:32:00.802Z,6.63
2023-10-18T01:34:34.006Z,6.61
2023-10-18T01:37:15.119Z,6.57
2023-10-18T01:39:47.983Z,6.53
2023-10-18T01:42:22.287Z,6.50
2023-10-18T01:44:57.057Z,6.49
2023-10-18T01:47:47.455Z,6.50
2023-10-18T01:50:25.622Z,6.48
2023-10-18T01:52:58.004Z,6.47
2023-10-18T01:55:32.836Z,6.46
2023-10-18T01:58:09.125Z,6.44
2023-10-18T02:00:45.672Z,6.44
2023-10-18T02:03:20.787Z,6.45
2023-10-18T02:05:53.505Z,6.43
2023-10-18T02:08:25.902Z,6.43
2023-10-18T02:10:58.040Z,6.42
2023-10-18T02:13:30.352Z,6.41
2023-10-18T02:16:02.623Z,6.39
2023-10-18T02:18:36.048Z,6.41
2023-10-18T02:21:08.549Z,6.40
2023-10-18T02:23:40.786Z,6.41
2023-10-18T02:26:32.149Z,6.42
2023-10-18T02:29:13.472Z,6.43
2023-10-18T02:31:45.980Z,6.42
2023-10-18T02:34:29.907Z,6.35
2023-10-18T02:37:05.997Z,6.44
2023-10-18T02:39:42.403Z,6.43
2023-10-18T02:42:19.522Z,6.43
2023-10-18T02:44:52.033Z,6.31
2023-10-18T02:47:24.911Z,6.39
2023-10-18T02:49:56.992Z,6.39
2023-10-18T02:52:32.060Z,6.38
2023-10-18T02:55:04.324Z,6.38
2023-10-18T02:57:36.640Z,6.38
2023-10-18T03:00:13.077Z,6.35
2023-10-18T03:02:45.789Z,6.35
2023-10-18T03:05:21.188Z,6.33
2023-10-18T03:07:53.373Z,6.30
2023-10-18T03:10:29.399Z,6.28
2023-10-18T03:13:04.323Z,6.27
2023-10-18T03:15:59.112Z,6.25
2023-10-18T03:18:35.931Z,6.23
2023-10-18T03:21:09.317Z,6.25
2023-10-18T03:23:46.398Z,6.25
2023-10-18T03:26:22.816Z,6.24
2023-10-18T03:28:55.157Z,6.22
2023-10-18T03:31:30.107Z,6.21
2023-10-18T03:34:04.226Z,6.21
2023-10-18T03:36:50.411Z,6.20
2023-10-18T03:39:25.989Z,6.19
2023-10-18T03:41:59.932Z,6.17
2023-10-18T03:44:33.710Z,6.16
2023-10-18T03:47:13.058Z,6.16
2023-10-18T03:49:46.464Z,6.14
2023-10-18T03:52:22.813Z,6.14
2023-10-18T03:55:08.147Z,6.12
2023-10-18T03:57:40.935Z,6.10
2023-10-18T04:00:38.762Z,6.01
2023-10-18T04:03:14.078Z,6.09
2023-10-18T04:05:47.145Z,6.06
2023-10-18T04:08:19.887Z,6.05
2023-10-18T04:11:01.047Z,6.03
2023-10-18T04:13:33.706Z,6.01
2023-10-18T04:16:11.558Z,6.01
2023-10-18T04:18:44.255Z,6.00
2023-10-18T04:21:17.226Z,6.00
2023-10-18T04:23:51.176Z,5.98
2023-10-18T04:26:26.422Z,5.95
2023-10-18T04:29:02.840Z,5.94
2023-10-18T04:31:36.373Z,5.94
2023-10-18T04:34:12.821Z,5.82
2023-10-18T04:36:45.242Z,5.94
2023-10-18T04:39:19.819Z,5.69
2023-10-18T04:41:52.212Z,5.94
2023-10-18T04:44:26.115Z,5.94
2023-10-18T04:47:01.243Z,5.84
2023-10-18T04:49:40.306Z,5.93
2023-10-18T04:52:21.719Z,5.84
2023-10-18T04:55:01.953Z,5.91
2023-10-18T04:57:40.229Z,5.93
2023-10-18T05:00:35.947Z,5.93
2023-10-18T05:03:14.582Z,5.90
2023-10-18T05:05:53.679Z,5.92
2023-10-18T05:08:27.126Z,5.93
2023-10-18T05:11:23.909Z,5.86
2023-10-18T05:13:58.259Z,5.94
2023-10-18T05:16:31.152Z,5.93
2023-10-18T05:19:06.888Z,5.90
2023-10-18T05:21:39.752Z,5.92
2023-10-18T05:24:19.616Z,5.92
2023-10-18T05:26:55.819Z,5.93
2023-10-18T05:29:33.761Z,5.93
2023-10-18T05:32:11.214Z,5.91
2023-10-18T05:35:12.517Z,5.92
2023-10-18T05:37:51.647Z,5.93
2023-10-18T05:40:41.538Z,5.92
2023-10-18T05:43:24.131Z,5.92
2023-10-18T05:45:58.958Z,5.92
2023-10-18T05:48:33.691Z,5.92
2023-10-18T05:51:36.640Z,5.91
2023-10-18T05:54:10.052Z,5.91
2023-10-18T05:56:42.327Z,5.93
2023-10-18T05:59:28.651Z,5.93
2023-10-18T06:02:03.869Z,5.95
2023-10-18T06:04:39.487Z,5.95
2023-10-18T06:07:13.168Z,5.96
2023-10-18T06:09:49.705Z,5.97
2023-10-18T06:12:25.569Z,5.96
2023-10-18T06:14:59.106Z,5.97
2023-10-18T06:17:47.711Z,6.00
2023-10-18T06:20:29.072Z,6.02
2023-10-18T06:23:11.218Z,6.03
2023-10-18T06:25:46.762Z,6.03
2023-10-18T06:28:22.646Z,6.04
2023-10-18T06:30:58.060Z,6.04
2023-10-18T06:33:36.798Z,6.07
2023-10-18T06:36:14.399Z,6.07
2023-10-18T06:38:49.141Z,6.02
2023-10-18T06:41:22.741Z,6.02
2023-10-18T06:43:56.188Z,6.12
2023-10-18T06:46:30.098Z,6.14
2023-10-18T06:51:42.034Z,6.21
2023-10-18T06:54:25.062Z,6.25
2023-10-18T06:56:58.614Z,6.28
2023-10-18T06:59:31.156Z,6.30
2023-10-18T07:02:04.718Z,6.33
2023-10-18T07:04:39.312Z,6.35
2023-10-18T07:07:14.445Z,6.39
2023-10-18T07:09:46.976Z,6.43
2023-10-18T07:12:21.022Z,6.47
2023-10-18T07:14:54.189Z,6.48
2023-10-18T07:17:26.608Z,6.51
2023-10-18T07:19:59.496Z,6.53
2023-10-18T07:22:45.646Z,6.60
2023-10-18T07:25:23.298Z,6.65
2023-10-18T07:27:57.715Z,6.76
2023-10-18T07:30:41.633Z,6.87
2023-10-18T07:33:16.389Z,6.89
2023-10-18T07:35:48.809Z,6.96
2023-10-18T07:38:27.179Z,7.05
2023-10-18T07:41:02.687Z,7.06
2023-10-18T07:43:34.952Z,7.23
2023-10-18T07:46:10.856Z,7.34
2023-10-18T07:48:47.437Z,7.48
2023-10-18T07:51:28.596Z,7.52
2023-10-18T07:54:01.341Z,7.66
2023-10-18T07:56:34.091Z,7.71
2023-10-18T07:59:23.699Z,7.74
2023-10-18T08:02:09.048Z,7.88
2023-10-18T08:04:43.787Z,7.98
2023-10-18T08:07:17.930Z,8.15
2023-10-18T08:09:52.793Z,8.29
2023-10-18T08:12:33.662Z,8.33
2023-10-18T08:15:14.915Z,8.46
2023-10-18T08:17:47.955Z,8.54
2023-10-18T08:20:52.117Z,8.62
2023-10-18T08:23:36.971Z,8.77
2023-10-18T08:26:09.140Z,8.89
2023-10-18T08:28:43.211Z,8.99
2023-10-18T08:31:28.130Z,9.09
2023-10-18T08:34:01.084Z,9.15
2023-10-18T08:36:33.266Z,9.23
2023-10-18T08:39:10.317Z,9.13
2023-10-18T08:41:52.287Z,9.21
2023-10-18T08:44:26.358Z,9.45
2023-10-18T08:47:15.927Z,9.54
2023-10-18T08:49:55.033Z,9.71
2023-10-18T08:52:29.633Z,9.72
2023-10-18T08:55:21.387Z,9.71
2023-10-18T08:57:57.511Z,9.81
2023-10-18T09:00:47.485Z,10.03
2023-10-18T09:03:22.233Z,10.12
2023-10-18T09:06:04.293Z,10.15
2023-10-18T09:08:40.024Z,10.26
2023-10-18T09:11:22.128Z,10.24
2023-10-18T09:14:10.383Z,10.42
2023-10-18T09:16:44.041Z,10.31
2023-10-18T09:19:17.171Z,10.36
2023-10-18T09:21:58.429Z,10.38
2023-10-18T09:24:33.017Z,10.65
2023-10-18T09:27:06.683Z,10.84
2023-10-18T09:29:40.277Z,10.95
2023-10-18T09:32:26.100Z,11.00
2023-10-18T09:34:58.494Z,11.13
2023-10-18T09:37:37.078Z,11.16
2023-10-18T09:40:13.707Z,11.22
2023-10-18T09:42:46.558Z,11.35
2023-10-18T09:45:21.667Z,11.49
2023-10-18T09:47:55.408Z,11.63
2023-10-18T09:50:32.390Z,11.72
2023-10-18T09:53:07.694Z,11.76
2023-10-18T09:55:43.439Z,11.88
2023-10-18T09:58:20.082Z,11.90
2023-10-18T10:00:58.384Z,11.78
2023-10-18T10:03:33.570Z,11.72
2023-10-18T10:06:06.197Z,11.95
2023-10-18T10:08:44.290Z,12.13
2023-10-18T10:11:20.497Z,12.12
2023-10-18T10:13:54.311Z,12.20
2023-10-18T10:16:27.723Z,12.32
2023-10-18T10:19:05.998Z,12.35
2023-10-18T10:21:39.353Z,12.28
2023-10-18T10:24:27.284Z,12.42
2023-10-18T10:27:42.625Z,12.54
2023-10-18T10:30:32.528Z,12.71
2023-10-18T10:33:07.525Z,12.58
2023-10-18T10:35:47.931Z,12.48
2023-10-18T10:38:27.800Z,12.61
2023-10-18T10:41:20.482Z,12.73
2023-10-18T10:44:24.089Z,12.90
2023-10-18T10:47:30.851Z,12.80
2023-10-18T10:50:08.398Z,12.96
2023-10-18T10:52:45.889Z,13.21
2023-10-18T10:55:24.020Z,13.12
2023-10-18T10:57:57.054Z,13.11
2023-10-18T11:00:50.881Z,13.16
2023-10-18T11:03:34.480Z,13.25
2023-10-18T11:06:11.435Z,13.37
2023-10-18T11:08:44.566Z,13.63
2023-10-18T11:11:17.313Z,13.60
2023-10-18T11:13:49.804Z,13.83
2023-10-18T11:16:23.279Z,13.89
2023-10-18T11:18:55.731Z,13.94
2023-10-18T11:21:30.366Z,13.96
2023-10-18T11:24:04.080Z,14.07
2023-10-18T11:26:42.330Z,14.15
2023-10-18T11:29:14.724Z,14.15
2023-10-18T11:31:47.825Z,14.15
2023-10-18T11:34:24.000Z,14.15
2023-10-18T11:37:02.532Z,14.13
2023-10-18T11:39:35.313Z,13.85
2023-10-18T11:42:10.120Z,13.90
2023-10-18T11:44:40.848Z,14.08
2023-10-18T11:47:20.256Z,14.19
2023-10-18T11:49:54.482Z,14.30
2023-10-18T11:52:28.741Z,14.31
2023-10-18T11:55:10.858Z,14.42
2023-10-18T11:57:47.512Z,14.43
2023-10-18T12:00:27.527Z,14.42
2023-10-18T12:03:02.587Z,14.51
2023-10-18T12:05:35.617Z,14.53
2023-10-18T12:08:13.954Z,14.62
2023-10-18T12:10:47.712Z,14.59
2023-10-18T12:13:21.628Z,14.60
2023-10-18T12:15:57.487Z,14.63
2023-10-18T12:18:30.800Z,14.65
2023-10-18T12:21:06.537Z,14.71
2023-10-18T12:23:41.529Z,14.72
2023-10-18T12:26:13.620Z,14.68
2023-10-18T12:28:50.548Z,14.69
2023-10-18T12:31:28.167Z,14.69
2023-10-18T12:34:01.703Z,14.63
2023-10-18T12:36:39.216Z,14.58
2023-10-18T12:39:13.240Z,14.56
2023-10-18T12:41:45.472Z,14.51
2023-10-18T12:44:19.688Z,14.46
2023-10-18T12:46:54.618Z,14.50
2023-10-18T12:49:33.293Z,14.44
2023-10-18T12:52:22.979Z,14.56
2023-10-18T12:57:34.834Z,14.50
2023-10-18T13:00:18.067Z,14.50
2023-10-18T13:02:52.617Z,14.52
2023-10-18T13:05:41.566Z,14.49
2023-10-18T13:08:25.863Z,14.55
2023-10-18T13:11:16.364Z,14.55
2023-10-18T13:13:50.172Z,14.45
2023-10-18T13:16:25.216Z,14.49
2023-10-18T13:18:58.687Z,14.62
2023-10-18T13:21:30.871Z,14.63
2023-10-18T13:24:18.074Z,14.78
2023-10-18T13:26:53.825Z,14.78
2023-10-18T13:29:31.965Z,14.79
2023-10-18T13:32:14.108Z,14.96
2023-10-18T13:34:46.787Z,14.91
2023-10-18T13:37:19.085Z,15.01
2023-10-18T13:39:53.048Z,14.99
2023-10-18T13:42:25.306Z,15.02
2023-10-18T13:44:57.857Z,15.00
2023-10-18T13:47:30.273Z,15.11
2023-10-18T13:50:02.536Z,15.27
2023-10-18T13:52:34.756Z,15.30
2023-10-18T13:55:08.256Z,15.16
2023-10-18T13:57:40.480Z,15.48
2023-10-18T14:00:15.746Z,15.56
2023-10-18T14:02:48.037Z,15.65
2023-10-18T14:05:20.818Z,15.61
2023-10-18T14:07:53.519Z,15.82
2023-10-18T14:10:29.896Z,16.05
2023-10-18T14:13:05.128Z,16.11
2023-10-18T14:15:39.321Z,16.30
2023-10-18T14:18:11.687Z,16.11
2023-10-18T14:20:51.550Z,16.10
2023-10-18T14:23:28.657Z,15.89
2023-10-18T14:26:02.165Z,15.56
2023-10-18T14:28:34.580Z,15.37
2023-10-18T14:31:13.752Z,15.17
2023-10-18T14:33:57.497Z,15.00
2023-10-18T14:36:35.973Z,14.78
2023-10-18T14:39:08.369Z,14.62
2023-10-18T14:41:41.146Z,14.48
2023-10-18T14:44:13.272Z,14.37
2023-10-18T14:46:45.941Z,14.29
2023-10-18T14:49:20.270Z,14.12
2023-10-18T14:51:52.685Z,14.00
2023-10-18T14:54:24.950Z,13.92
2023-10-18T14:56:57.245Z,13.75
2023-10-18T14:59:30.220Z,13.72
2023-10-18T15:02:02.548Z,13.63
2023-10-18T15:04:34.606Z,13.53
2023-10-18T15:07:06.799Z,13.45
2023-10-18T15:09:42.548Z,13.42
2023-10-18T15:12:18.190Z,13.31
2023-10-18T15:14:53.131Z,13.22
2023-10-18T15:17:26.829Z,13.13
2023-10-18T15:19:59.293Z,13.05
2023-10-18T15:22:34.968Z,12.99
2023-10-18T15:25:10.433Z,12.89
2023-10-18T15:27:42.906Z,12.78
2023-10-18T15:30:18.736Z,12.75
2023-10-18T15:32:51.062Z,12.62
2023-10-18T15:35:23.462Z,12.64
2023-10-18T15:37:55.620Z,12.56
2023-10-18T15:40:30.180Z,12.49
2023-10-18T15:43:02.331Z,12.44
2023-10-18T15:45:35.971Z,12.37
2023-10-18T15:48:12.992Z,12.21
2023-10-18T15:50:45.407Z,12.22
2023-10-18T15:53:17.531Z,12.17
2023-10-18T15:55:49.673Z,12.06
2023-10-18T15:58:21.969Z,12.01
2023-10-18T16:00:55.368Z,11.96
2023-10-18T16:03:29.640Z,11.90
2023-10-18T16:06:01.990Z,11.83
2023-10-18T16:08:35.135Z,11.77
2023-10-18T16:11:08.355Z,11.70
2023-10-18T16:13:40.861Z,11.52
2023-10-18T16:16:14.880Z,11.45
2023-10-18T16:18:47.113Z,11.45
2023-10-18T16:21:22.360Z,11.43
2023-10-18T16:23:55.117Z,11.34
2023-10-18T16:26:28.153Z,11.26
2023-10-18T16:29:00.767Z,11.18
2023-10-18T16:31:34.570Z,11.11
2023-10-18T16:34:07.761Z,11.05
2023-10-18T16:36:40.296Z,10.96
2023-10-18T16:39:18.708Z,10.95
2023-10-18T16:41:51.620Z,10.96
2023-10-18T16:44:24.057Z,10.92
2023-10-18T16:46:56.412Z,10.78
2023-10-18T16:49:30.432Z,10.81
2023-10-18T16:52:02.848Z,10.68
2023-10-18T16:54:36.626Z,10.70
2023-10-18T16:57:09.001Z,10.63
2023-10-18T16:59:41.170Z,10.56
2023-10-18T17:02:13.371Z,10.51
2023-10-18T17:04:45.560Z,10.48
2023-10-18T17:07:18.311Z,10.45
2023-10-18T17:09:52.543Z,10.42
2023-10-18T17:12:24.753Z,10.38
2023-10-18T17:14:57.770Z,10.34
2023-10-18T17:17:31.248Z,10.30
2023-10-18T17:20:08.067Z,10.25
2023-10-18T17:22:43.880Z,10.20
2023-10-18T17:26:10.153Z,10.16
2023-10-18T17:28:43.024Z,10.10
2023-10-18T17:31:15.622Z,10.07
2023-10-18T17:33:47.877Z,10.02
2023-10-18T17:36:21.661Z,9.97
2023-10-18T17:38:54.231Z,9.93
2023-10-18T17:41:26.529Z,9.86
2023-10-18T17:43:58.873Z,9.81
2023-10-18T17:46:31.134Z,9.76
2023-10-18T17:49:03.343Z,9.66
2023-10-18T17:51:37.043Z,9.70
2023-10-18T17:54:09.728Z,9.68
2023-10-18T17:56:42.359Z,9.63
2023-10-18T17:59:15.599Z,9.60
2023-10-18T18:01:53.498Z,9.55
2023-10-18T18:04:26.478Z,9.56
2023-10-18T18:06:59.059Z,9.51
2023-10-18T18:09:31.805Z,9.49
2023-10-18T18:12:08.587Z,9.45
2023-10-18T18:14:42.811Z,9.41
2023-10-18T18:17:15.246Z,9.37
2023-10-18T18:19:47.716Z,9.35
2023-10-18T18:22:19.805Z,9.32
2023-10-18T18:24:52.156Z,9.29
2023-10-18T18:27:24.836Z,9.26
2023-10-18T18:29:56.948Z,9.23
2023-10-18T18:32:29.611Z,9.20
2023-10-18T18:35:01.865Z,9.18
2023-10-18T18:37:34.650Z,9.16
2023-10-18T18:40:10.387Z,9.14
2023-10-18T18:42:43.086Z,9.13
2023-10-18T18:45:19.640Z,9.10
2023-10-18T18:47:53.078Z,9.08
2023-10-18T18:50:25.628Z,9.08
2023-10-18T18:52:58.015Z,9.06
2023-10-18T18:55:30.104Z,9.03
2023-10-18T18:58:02.678Z,9.01
2023-10-18T19:00:34.992Z,8.99
2023-10-18T19:03:08.792Z,8.98
2023-10-18T19:05:41.200Z,8.95
2023-10-18T19:08:14.049Z,8.92
2023-10-18T19:10:46.443Z,8.90
2023-10-18T19:13:18.890Z,8.86
2023-10-18T19:15:51.087Z,8.84
2023-10-18T19:18:23.626Z,8.80
2023-10-18T19:21:06.436Z,8.72
2023-10-18T19:23:41.677Z,8.79
2023-10-18T19:26:15.865Z,8.75
2023-10-18T19:28:49.232Z,8.65
2023-10-18T19:31:21.762Z,8.73
2023-10-18T19:33:54.496Z,8.73
2023-10-18T19:36:26.735Z,8.73
2023-10-18T19:39:00.389Z,8.71
2023-10-18T19:41:32.561Z,8.70
2023-10-18T19:44:07.931Z,8.65
2023-10-18T19:46:40.628Z,8.64
2023-10-18T19:49:14.463Z,8.63
2023-10-18T19:51:46.936Z,8.60
2023-10-18T19:54:19.862Z,8.58
2023-10-18T19:56:54.160Z,8.56
2023-10-18T19:59:26.473Z,8.54
2023-10-18T20:01:58.653Z,8.52
2023-10-18T20:04:34.210Z,8.49
2023-10-18T20:07:07.834Z,8.48
2023-10-18T20:09:40.083Z,8.45
2023-10-18T20:12:12.466Z,8.43
2023-10-18T20:14:45.797Z,8.42
2023-10-18T20:17:18.238Z,8.40
2023-10-18T20:19:52.093Z,8.38
2023-10-18T20:22:24.803Z,8.35
2023-10-18T20:24:57.312Z,8.33
2023-10-18T20:27:30.475Z,8.30
2023-10-18T20:30:02.841Z,8.28
2023-10-18T20:32:37.679Z,8.25
2023-10-18T20:35:11.375Z,8.21
2023-10-18T20:37:44.083Z,8.18
2023-10-18T20:40:16.888Z,8.18
2023-10-18T20:42:53.900Z,8.17
2023-10-18T20:45:29.711Z,8.16
2023-10-18T20:48:08.481Z,8.07
2023-10-18T20:50:41.570Z,8.14
2023-10-18T20:53:17.110Z,8.13
2023-10-18T20:55:51.322Z,8.11
2023-10-18T20:58:24.697Z,8.10
2023-10-18T21:00:57.226Z,8.08
2023-10-18T21:03:33.572Z,8.06
2023-10-18T21:06:13.607Z,8.06
2023-10-18T21:08:49.416Z,8.05
2023-10-18T21:11:22.007Z,8.01
2023-10-18T21:13:54.467Z,7.99
2023-10-18T21:16:27.895Z,7.97
2023-10-18T21:19:00.141Z,7.97
2023-10-18T21:21:33.245Z,7.96
2023-10-18T21:24:06.475Z,7.96
2023-10-18T21:26:41.244Z,7.96
2023-10-18T21:29:12.192Z,7.96
2023-10-18T21:31:44.846Z,7.95
2023-10-18T21:34:17.443Z,7.93
2023-10-18T21:36:50.147Z,7.90
2023-10-18T21:39:25.343Z,7.88
2023-10-18T21:41:57.553Z,7.87
2023-10-18T21:44:30.574Z,7.86
2023-10-18T21:47:03.011Z,7.86
2023-10-18T21:49:35.332Z,7.85
2023-10-18T21:52:07.731Z,7.85
2023-10-18T21:54:41.725Z,7.86
2023-10-18T21:57:16.582Z,7.87
2023-10-18T21:59:50.140Z,7.87
2023-10-18T22:02:23.286Z,7.88
2023-10-18T22:04:56.510Z,7.89
2023-10-18T22:07:29.006Z,7.89
2023-10-18T22:10:01.351Z,7.87
2023-10-18T22:12:39.620Z,7.88
2023-10-18T22:15:15.479Z,7.80
2023-10-18T22:17:47.855Z,7.88
2023-10-18T22:20:24.405Z,7.90
2023-10-18T22:22:59.076Z,7.89
2023-10-18T22:25:46.782Z,7.90
2023-10-18T22:28:25.073Z,7.90
2023-10-18T22:30:59.953Z,7.91
2023-10-18T22:33:32.292Z,7.92
2023-10-18T22:36:08.347Z,7.94
2023-10-18T22:38:41.935Z,7.94
2023-10-18T22:41:22.386Z,7.95
2023-10-18T22:43:56.472Z,7.88
2023-10-18T22:46:35.853Z,7.95
2023-10-18T22:49:12.788Z,7.96
2023-10-18T22:51:48.415Z,7.86
2023-10-18T22:54:26.260Z,7.96
2023-10-18T22:57:00.262Z,7.97
2023-10-18T22:59:32.331Z,7.96
2023-10-18T23:02:08.301Z,7.97
2023-10-18T23:04:45.417Z,7.98
2023-10-18T23:07:25.813Z,7.97
2023-10-18T23:09:58.437Z,7.92
2023-10-18T23:12:30.922Z,7.94
2023-10-18T23:15:19.911Z,7.96
2023-10-18T23:17:54.507Z,8.00
2023-10-18T23:20:35.984Z,8.01
2023-10-18T23:23:08.713Z,8.04
2023-10-18T23:25:58.196Z,8.03
2023-10-18T23:28:32.205Z,8.01
2023-10-18T23:31:10.499Z,8.03
2023-10-18T23:33:50.561Z,8.04
2023-10-18T23:36:28.271Z,7.96
2023-10-18T23:39:10.005Z,8.03
2023-10-18T23:41:43.530Z,8.05
2023-10-18T23:44:17.967Z,8.04
2023-10-18T23:47:11.909Z,8.02
2023-10-18T23:49:59.631Z,8.03
2023-10-18T23:52:49.892Z,8.01
2023-10-18T23:55:34.748Z,8.02
2023-10-18T23:58:07.887Z,8.02
